メインページ
METAR-TAF:

METAR-TAF

空港 :

バックホルツ陸軍飛行場

クェゼリン環礁, マーシャル諸島

緯度: 08-43N, 経度: 167-44E, 海抜: 3m

現時点の気象観測

当レポートは13分前の14:00(UTC)に作成
北東の風 12kt、最大17ktの突風を伴う
気温 28°C
湿度 84%
気圧 1008 hPa
視程: 16.1km
高度2000ftの雲は散在している
高度2800ftの雲は散在している
高度3200ftの雲は散在している

METAR: PKWA 101400Z AUTO 04012G17KT 10SM SCT020 SCT028 SCT032 28/25 A2978 RMK AO2 T02830251

時間: 02:13 (14:13 UTC)

予報

当レポートは2時間53分前の11:20(UTC)に作成
予報は10日の 12時(UTC)から 11日の 12時(UTC)まで有効
東/北東の風 16kt
視程: 10km
高度2000ftの雲は散在している
高度4000ftの雲は散在している
近辺でにわか雨

TAF: PKWA 101120Z 1012/1112 06016KT P6SM VCSH SCT020 SCT040

4,000以上の空港の気象観測と天気予報(METAR報とTAF報)

利用可能な観測所は地図上に黄色い丸と赤い丸で示す。

丸の上にカーソルを重ねると観測所名を参照できる。

次にクリックすると気象観測と天気予報を参照できる。

マップの切り替え:黒色「×」印の緑ボタンをクリックして拡大、「-」印の緑ボタンをクリックして縮小、緑色の三角印をクリックして隣りの地図に切り替え


METAR-TAF: